| Date | Time | Temp. (oF) | Dew Point (oF) | Rel. Hum. (%) | Press. (in.) | Wind Dir. | Wind Speed (mph) | Hourly Rainfall (in.) |
|
|---|---|---|---|---|---|---|---|---|---|
| 1 | 06/04 | 00:00 | 65 | 64 | 99 | 29.78 | S | 6 | 0.00 |
| 2 | 06/03 | 23:00 | 65 | 63 | 95 | 29.80 | S | 9 | 0.16 |
| 3 | 06/03 | 22:00 | 66 | 61 | 84 | 29.81 | SSW | 4 | 0.07 |
| 4 | 06/03 | 21:00 | 72 | 59 | 64 | 29.79 | S | 4 | 0.00 |
| 5 | 06/03 | 20:00 | 73 | 59 | 62 | 29.80 | SSW | 9 | 0.00 |
| 6 | 06/03 | 19:00 | 75 | 60 | 60 | 29.81 | S | 4 | 0.00 |
| 7 | 06/03 | 18:00 | 77 | 58 | 54 | 29.82 | S | 9 | 0.00 |
| 8 | 06/03 | 17:00 | 79 | 56 | 46 | 29.82 | SSW | 14 | 0.00 |
| 9 | 06/03 | 16:00 | 80 | 53 | 41 | 29.83 | SSW | 8 | 0.00 |
| 10 | 06/03 | 15:00 | 80 | 51 | 38 | 29.87 | SSW | 9 | 0.00 |
| 11 | 06/03 | 14:00 | 81 | 52 | 37 | 29.89 | S | 20 | 0.00 |
| 12 | 06/03 | 13:00 | 81 | 52 | 38 | 29.91 | SSW | 8 | 0.00 |
| 13 | 06/03 | 12:00 | 80 | 53 | 41 | 29.94 | SSW | 6 | 0.00 |
| 14 | 06/03 | 11:00 | 82 | 55 | 41 | 29.96 | SSW | 8 | 0.00 |
| 15 | 06/03 | 10:00 | 79 | 56 | 47 | 29.98 | S | 5 | 0.00 |
| 16 | 06/03 | 09:00 | 72 | 54 | 55 | 29.99 | W | 2 | 0.00 |
| 17 | 06/03 | 08:00 | 64 | 59 | 84 | 29.99 | NE | 2 | 0.00 |
| 18 | 06/03 | 07:00 | 58 | 55 | 92 | 29.98 | N | 0 | 0.00 |
| 19 | 06/03 | 06:00 | 56 | 54 | 93 | 29.97 | N | 0 | 0.00 |
| 20 | 06/03 | 05:00 | 57 | 54 | 92 | 29.97 | WSW | 0 | 0.00 |
| 21 | 06/03 | 04:00 | 57 | 53 | 89 | 29.96 | WSW | 0 | 0.00 |
| 22 | 06/03 | 03:00 | 58 | 53 | 85 | 29.96 | WSW | 0 | 0.00 |
| 23 | 06/03 | 02:00 | 60 | 53 | 80 | 29.96 | WSW | 0 | 0.00 |
| 24 | 06/03 | 01:00 | 61 | 52 | 75 | 29.96 | WSW | 0 | 0.00 |